sensor_id;sensor_type;location;lat;lon;timestamp;temperature;humidity
7900;DHT22;3995;50.856;4.404;2022-10-16T00:00:41;18.60;59.80
7900;DHT22;3995;50.856;4.404;2022-10-16T00:03:10;18.60;59.80
7900;DHT22;3995;50.856;4.404;2022-10-16T00:05:41;18.60;59.20
7900;DHT22;3995;50.856;4.404;2022-10-16T00:08:10;18.60;59.10
7900;DHT22;3995;50.856;4.404;2022-10-16T00:10:38;18.60;59.20
7900;DHT22;3995;50.856;4.404;2022-10-16T00:13:08;18.60;59.10
7900;DHT22;3995;50.856;4.404;2022-10-16T00:15:36;18.60;58.90
7900;DHT22;3995;50.856;4.404;2022-10-16T00:18:05;18.60;59.00
7900;DHT22;3995;50.856;4.404;2022-10-16T00:20:34;18.60;59.10
7900;DHT22;3995;50.856;4.404;2022-10-16T00:23:02;18.60;59.10
7900;DHT22;3995;50.856;4.404;2022-10-16T00:25:30;18.60;59.20
7900;DHT22;3995;50.856;4.404;2022-10-16T00:27:58;18.60;59.10
7900;DHT22;3995;50.856;4.404;2022-10-16T00:30:27;18.60;59.10
7900;DHT22;3995;50.856;4.404;2022-10-16T00:32:55;18.60;59.10
7900;DHT22;3995;50.856;4.404;2022-10-16T00:35:22;18.50;59.10
7900;DHT22;3995;50.856;4.404;2022-10-16T00:37:49;18.50;59.10
7900;DHT22;3995;50.856;4.404;2022-10-16T00:40:16;18.50;59.10
7900;DHT22;3995;50.856;4.404;2022-10-16T00:42:43;18.50;59.10
7900;DHT22;3995;50.856;4.404;2022-10-16T00:45:10;18.50;59.20
7900;DHT22;3995;50.856;4.404;2022-10-16T00:47:42;18.50;59.30
7900;DHT22;3995;50.856;4.404;2022-10-16T00:50:15;18.50;59.30
7900;DHT22;3995;50.856;4.404;2022-10-16T00:52:46;18.50;59.20
7900;DHT22;3995;50.856;4.404;2022-10-16T00:55:14;18.50;59.30
7900;DHT22;3995;50.856;4.404;2022-10-16T00:57:41;18.50;59.30
7900;DHT22;3995;50.856;4.404;2022-10-16T01:00:14;18.50;59.30
7900;DHT22;3995;50.856;4.404;2022-10-16T01:02:43;18.50;59.30
7900;DHT22;3995;50.856;4.404;2022-10-16T01:05:12;18.50;59.50
7900;DHT22;3995;50.856;4.404;2022-10-16T01:07:45;18.50;59.50
7900;DHT22;3995;50.856;4.404;2022-10-16T01:10:20;18.50;59.40
7900;DHT22;3995;50.856;4.404;2022-10-16T01:12:53;18.50;59.60
7900;DHT22;3995;50.856;4.404;2022-10-16T01:15:26;18.50;59.70
7900;DHT22;3995;50.856;4.404;2022-10-16T01:18:01;18.50;59.70
7900;DHT22;3995;50.856;4.404;2022-10-16T01:20:32;18.50;59.70
7900;DHT22;3995;50.856;4.404;2022-10-16T01:23:10;18.50;59.80
7900;DHT22;3995;50.856;4.404;2022-10-16T01:26:11;18.50;59.70
7900;DHT22;3995;50.856;4.404;2022-10-16T01:28:47;18.50;59.60
7900;DHT22;3995;50.856;4.404;2022-10-16T01:31:18;18.50;59.80
7900;DHT22;3995;50.856;4.404;2022-10-16T01:33:48;18.50;59.80
7900;DHT22;3995;50.856;4.404;2022-10-16T01:36:23;18.50;59.80
7900;DHT22;3995;50.856;4.404;2022-10-16T01:38:54;18.50;59.70
7900;DHT22;3995;50.856;4.404;2022-10-16T01:41:29;18.50;59.80
7900;DHT22;3995;50.856;4.404;2022-10-16T01:44:01;18.50;59.80
7900;DHT22;3995;50.856;4.404;2022-10-16T01:46:31;18.50;59.90
7900;DHT22;3995;50.856;4.404;2022-10-16T01:49:00;18.50;59.80
7900;DHT22;3995;50.856;4.404;2022-10-16T01:51:29;18.50;59.80
7900;DHT22;3995;50.856;4.404;2022-10-16T01:53:59;18.50;59.90
7900;DHT22;3995;50.856;4.404;2022-10-16T01:56:27;18.50;59.80
7900;DHT22;3995;50.856;4.404;2022-10-16T01:58:57;18.50;59.90
7900;DHT22;3995;50.856;4.404;2022-10-16T02:01:29;18.50;60.00
7900;DHT22;3995;50.856;4.404;2022-10-16T02:04:02;18.50;60.00
7900;DHT22;3995;50.856;4.404;2022-10-16T02:06:30;18.50;60.00
7900;DHT22;3995;50.856;4.404;2022-10-16T02:08:57;18.40;60.00
7900;DHT22;3995;50.856;4.404;2022-10-16T02:11:25;18.50;60.10
7900;DHT22;3995;50.856;4.404;2022-10-16T02:13:56;18.40;59.90
7900;DHT22;3995;50.856;4.404;2022-10-16T02:16:35;18.50;60.10
7900;DHT22;3995;50.856;4.404;2022-10-16T02:19:04;18.50;60.10
7900;DHT22;3995;50.856;4.404;2022-10-16T02:21:38;18.40;60.20
7900;DHT22;3995;50.856;4.404;2022-10-16T02:24:10;18.40;60.20
7900;DHT22;3995;50.856;4.404;2022-10-16T02:26:45;18.40;60.30
7900;DHT22;3995;50.856;4.404;2022-10-16T02:29:16;18.40;60.30
7900;DHT22;3995;50.856;4.404;2022-10-16T02:31:50;18.40;60.30
7900;DHT22;3995;50.856;4.404;2022-10-16T02:34:21;18.40;60.40
7900;DHT22;3995;50.856;4.404;2022-10-16T02:36:51;18.40;60.50
7900;DHT22;3995;50.856;4.404;2022-10-16T02:39:20;18.40;61.10
7900;DHT22;3995;50.856;4.404;2022-10-16T02:41:48;18.40;60.50
7900;DHT22;3995;50.856;4.404;2022-10-16T02:44:15;18.40;60.50
7900;DHT22;3995;50.856;4.404;2022-10-16T02:46:42;18.40;60.50
7900;DHT22;3995;50.856;4.404;2022-10-16T02:49:11;18.40;60.60
7900;DHT22;3995;50.856;4.404;2022-10-16T02:51:38;18.40;60.60
7900;DHT22;3995;50.856;4.404;2022-10-16T02:54:06;18.40;60.60
7900;DHT22;3995;50.856;4.404;2022-10-16T02:56:33;18.40;60.70
7900;DHT22;3995;50.856;4.404;2022-10-16T02:59:00;18.40;60.70
7900;DHT22;3995;50.856;4.404;2022-10-16T03:01:28;18.40;61.40
7900;DHT22;3995;50.856;4.404;2022-10-16T03:03:55;18.40;60.70
7900;DHT22;3995;50.856;4.404;2022-10-16T03:06:23;18.40;60.80
7900;DHT22;3995;50.856;4.404;2022-10-16T03:08:50;18.40;60.80
7900;DHT22;3995;50.856;4.404;2022-10-16T03:11:18;18.40;60.90
7900;DHT22;3995;50.856;4.404;2022-10-16T03:13:45;18.40;60.90
7900;DHT22;3995;50.856;4.404;2022-10-16T03:16:12;18.40;61.00
7900;DHT22;3995;50.856;4.404;2022-10-16T03:18:39;18.40;60.90
7900;DHT22;3995;50.856;4.404;2022-10-16T03:21:07;18.40;61.00
7900;DHT22;3995;50.856;4.404;2022-10-16T03:23:36;18.40;61.10
7900;DHT22;3995;50.856;4.404;2022-10-16T03:26:03;18.40;61.10
7900;DHT22;3995;50.856;4.404;2022-10-16T03:28:30;18.30;61.00
7900;DHT22;3995;50.856;4.404;2022-10-16T03:30:57;18.30;61.10
7900;DHT22;3995;50.856;4.404;2022-10-16T03:33:24;18.30;61.20
7900;DHT22;3995;50.856;4.404;2022-10-16T03:35:52;18.30;61.10
7900;DHT22;3995;50.856;4.404;2022-10-16T03:38:20;18.30;61.10
7900;DHT22;3995;50.856;4.404;2022-10-16T03:40:48;18.30;61.00
7900;DHT22;3995;50.856;4.404;2022-10-16T03:43:15;18.30;61.10
7900;DHT22;3995;50.856;4.404;2022-10-16T03:45:42;18.30;61.20
7900;DHT22;3995;50.856;4.404;2022-10-16T03:48:10;18.30;61.20
7900;DHT22;3995;50.856;4.404;2022-10-16T03:50:37;18.30;61.30
7900;DHT22;3995;50.856;4.404;2022-10-16T03:53:04;18.30;61.90
7900;DHT22;3995;50.856;4.404;2022-10-16T03:55:32;18.30;61.30
7900;DHT22;3995;50.856;4.404;2022-10-16T03:58:00;18.30;61.30
7900;DHT22;3995;50.856;4.404;2022-10-16T04:00:28;18.30;61.30
7900;DHT22;3995;50.856;4.404;2022-10-16T04:02:55;18.30;61.40
7900;DHT22;3995;50.856;4.404;2022-10-16T04:05:22;18.30;61.40
7900;DHT22;3995;50.856;4.404;2022-10-16T04:07:49;18.20;61.30
7900;DHT22;3995;50.856;4.404;2022-10-16T04:10:16;18.30;61.40
7900;DHT22;3995;50.856;4.404;2022-10-16T04:12:44;18.30;61.40
7900;DHT22;3995;50.856;4.404;2022-10-16T04:15:13;18.30;61.40
7900;DHT22;3995;50.856;4.404;2022-10-16T04:17:40;18.30;61.40
7900;DHT22;3995;50.856;4.404;2022-10-16T04:20:08;18.30;61.40
7900;DHT22;3995;50.856;4.404;2022-10-16T04:22:35;18.30;61.40
7900;DHT22;3995;50.856;4.404;2022-10-16T04:25:03;18.30;61.40
7900;DHT22;3995;50.856;4.404;2022-10-16T04:27:31;18.30;61.50
7900;DHT22;3995;50.856;4.404;2022-10-16T04:29:59;18.30;61.50
7900;DHT22;3995;50.856;4.404;2022-10-16T04:32:28;18.30;61.50
7900;DHT22;3995;50.856;4.404;2022-10-16T04:34:55;18.30;61.50
7900;DHT22;3995;50.856;4.404;2022-10-16T04:37:23;18.20;61.40
7900;DHT22;3995;50.856;4.404;2022-10-16T04:39:51;18.30;61.50
7900;DHT22;3995;50.856;4.404;2022-10-16T04:42:18;18.30;61.50
7900;DHT22;3995;50.856;4.404;2022-10-16T04:44:46;18.30;61.40
7900;DHT22;3995;50.856;4.404;2022-10-16T04:47:13;18.30;61.30
7900;DHT22;3995;50.856;4.404;2022-10-16T04:49:42;18.30;61.30
7900;DHT22;3995;50.856;4.404;2022-10-16T04:52:09;18.30;61.30
7900;DHT22;3995;50.856;4.404;2022-10-16T04:54:36;18.30;61.30
7900;DHT22;3995;50.856;4.404;2022-10-16T04:57:03;18.30;61.30
7900;DHT22;3995;50.856;4.404;2022-10-16T04:59:30;18.30;61.40
7900;DHT22;3995;50.856;4.404;2022-10-16T05:01:59;18.30;61.40
7900;DHT22;3995;50.856;4.404;2022-10-16T05:04:26;18.30;61.40
7900;DHT22;3995;50.856;4.404;2022-10-16T05:06:55;18.30;61.40
7900;DHT22;3995;50.856;4.404;2022-10-16T05:09:22;18.30;61.40
7900;DHT22;3995;50.856;4.404;2022-10-16T05:11:49;18.30;61.30
7900;DHT22;3995;50.856;4.404;2022-10-16T05:14:17;18.30;61.40
7900;DHT22;3995;50.856;4.404;2022-10-16T05:16:44;18.30;61.40
7900;DHT22;3995;50.856;4.404;2022-10-16T05:19:13;18.20;61.40
7900;DHT22;3995;50.856;4.404;2022-10-16T05:21:41;18.20;61.50
7900;DHT22;3995;50.856;4.404;2022-10-16T05:24:09;18.20;61.50
7900;DHT22;3995;50.856;4.404;2022-10-16T05:26:36;18.20;61.60
7900;DHT22;3995;50.856;4.404;2022-10-16T05:29:03;18.20;61.70
7900;DHT22;3995;50.856;4.404;2022-10-16T05:31:31;18.20;61.70
7900;DHT22;3995;50.856;4.404;2022-10-16T05:33:58;18.20;61.70
7900;DHT22;3995;50.856;4.404;2022-10-16T05:36:26;18.20;61.80
7900;DHT22;3995;50.856;4.404;2022-10-16T05:38:53;18.20;61.80
7900;DHT22;3995;50.856;4.404;2022-10-16T05:41:22;18.20;61.90
7900;DHT22;3995;50.856;4.404;2022-10-16T05:43:51;18.20;62.00
7900;DHT22;3995;50.856;4.404;2022-10-16T05:46:19;18.10;62.00
7900;DHT22;3995;50.856;4.404;2022-10-16T05:48:46;18.10;62.10
7900;DHT22;3995;50.856;4.404;2022-10-16T05:51:14;18.10;62.10
7900;DHT22;3995;50.856;4.404;2022-10-16T05:53:41;18.10;62.20
7900;DHT22;3995;50.856;4.404;2022-10-16T05:56:10;18.10;62.20
7900;DHT22;3995;50.856;4.404;2022-10-16T05:58:41;18.10;62.10
7900;DHT22;3995;50.856;4.404;2022-10-16T06:01:11;18.10;62.20
7900;DHT22;3995;50.856;4.404;2022-10-16T06:03:39;18.10;62.30
7900;DHT22;3995;50.856;4.404;2022-10-16T06:06:09;18.10;62.30
7900;DHT22;3995;50.856;4.404;2022-10-16T06:08:37;18.10;62.20
7900;DHT22;3995;50.856;4.404;2022-10-16T06:11:06;18.10;62.80
7900;DHT22;3995;50.856;4.404;2022-10-16T06:13:33;18.10;62.10
7900;DHT22;3995;50.856;4.404;2022-10-16T06:16:03;18.10;62.20
7900;DHT22;3995;50.856;4.404;2022-10-16T06:18:31;18.20;62.30
7900;DHT22;3995;50.856;4.404;2022-10-16T06:20:58;18.10;62.20
7900;DHT22;3995;50.856;4.404;2022-10-16T06:23:28;18.10;62.20
7900;DHT22;3995;50.856;4.404;2022-10-16T06:26:04;18.10;62.10
7900;DHT22;3995;50.856;4.404;2022-10-16T06:28:31;18.10;61.90
7900;DHT22;3995;50.856;4.404;2022-10-16T06:30:59;18.10;62.10
7900;DHT22;3995;50.856;4.404;2022-10-16T06:33:28;18.10;62.20
7900;DHT22;3995;50.856;4.404;2022-10-16T06:36:00;18.10;62.10
7900;DHT22;3995;50.856;4.404;2022-10-16T06:38:27;18.10;62.10
7900;DHT22;3995;50.856;4.404;2022-10-16T06:40:55;18.10;62.10
7900;DHT22;3995;50.856;4.404;2022-10-16T06:43:22;18.10;62.00
7900;DHT22;3995;50.856;4.404;2022-10-16T06:45:53;18.10;62.00
7900;DHT22;3995;50.856;4.404;2022-10-16T06:48:21;18.10;62.00
7900;DHT22;3995;50.856;4.404;2022-10-16T06:50:57;18.10;62.60
7900;DHT22;3995;50.856;4.404;2022-10-16T06:53:25;18.20;61.90
7900;DHT22;3995;50.856;4.404;2022-10-16T06:55:53;18.10;62.00
7900;DHT22;3995;50.856;4.404;2022-10-16T06:58:20;18.10;62.10
7900;DHT22;3995;50.856;4.404;2022-10-16T07:00:48;18.10;62.10
7900;DHT22;3995;50.856;4.404;2022-10-16T07:03:15;18.10;62.10
7900;DHT22;3995;50.856;4.404;2022-10-16T07:05:43;18.10;62.20
7900;DHT22;3995;50.856;4.404;2022-10-16T07:08:12;18.10;62.20
7900;DHT22;3995;50.856;4.404;2022-10-16T07:10:39;18.10;62.20
7900;DHT22;3995;50.856;4.404;2022-10-16T07:13:06;18.10;62.30
7900;DHT22;3995;50.856;4.404;2022-10-16T07:15:34;18.10;62.30
7900;DHT22;3995;50.856;4.404;2022-10-16T07:18:01;18.10;62.40
7900;DHT22;3995;50.856;4.404;2022-10-16T07:20:30;18.10;62.40
7900;DHT22;3995;50.856;4.404;2022-10-16T07:22:57;18.10;62.40
7900;DHT22;3995;50.856;4.404;2022-10-16T07:25:26;18.10;62.40
7900;DHT22;3995;50.856;4.404;2022-10-16T07:27:54;18.10;62.40
7900;DHT22;3995;50.856;4.404;2022-10-16T07:30:23;18.10;62.50
7900;DHT22;3995;50.856;4.404;2022-10-16T07:32:50;18.10;62.50
7900;DHT22;3995;50.856;4.404;2022-10-16T07:35:18;18.10;62.50
7900;DHT22;3995;50.856;4.404;2022-10-16T07:37:45;18.10;62.50
7900;DHT22;3995;50.856;4.404;2022-10-16T07:40:12;18.20;62.60
7900;DHT22;3995;50.856;4.404;2022-10-16T07:42:41;18.20;62.60
7900;DHT22;3995;50.856;4.404;2022-10-16T07:45:09;18.20;62.70
7900;DHT22;3995;50.856;4.404;2022-10-16T07:47:36;18.20;62.70
7900;DHT22;3995;50.856;4.404;2022-10-16T07:50:04;18.20;62.70
7900;DHT22;3995;50.856;4.404;2022-10-16T07:52:31;18.20;62.70
7900;DHT22;3995;50.856;4.404;2022-10-16T07:54:59;18.20;62.70
7900;DHT22;3995;50.856;4.404;2022-10-16T07:57:26;18.10;62.60
7900;DHT22;3995;50.856;4.404;2022-10-16T07:59:55;18.10;62.60
7900;DHT22;3995;50.856;4.404;2022-10-16T08:02:22;18.20;62.60
7900;DHT22;3995;50.856;4.404;2022-10-16T08:04:49;18.10;62.50
7900;DHT22;3995;50.856;4.404;2022-10-16T08:07:16;18.10;62.50
7900;DHT22;3995;50.856;4.404;2022-10-16T08:09:43;18.10;62.60
7900;DHT22;3995;50.856;4.404;2022-10-16T08:12:10;18.10;62.60
7900;DHT22;3995;50.856;4.404;2022-10-16T08:14:38;18.10;62.60
7900;DHT22;3995;50.856;4.404;2022-10-16T08:17:06;18.10;62.60
7900;DHT22;3995;50.856;4.404;2022-10-16T08:19:33;18.10;62.60
7900;DHT22;3995;50.856;4.404;2022-10-16T08:22:01;18.10;62.70
7900;DHT22;3995;50.856;4.404;2022-10-16T08:24:28;18.20;62.70
7900;DHT22;3995;50.856;4.404;2022-10-16T08:26:56;18.20;62.70
7900;DHT22;3995;50.856;4.404;2022-10-16T08:29:24;18.20;62.60
7900;DHT22;3995;50.856;4.404;2022-10-16T08:31:51;18.20;62.50
7900;DHT22;3995;50.856;4.404;2022-10-16T08:34:21;18.20;62.40
7900;DHT22;3995;50.856;4.404;2022-10-16T08:36:48;18.20;62.30
7900;DHT22;3995;50.856;4.404;2022-10-16T08:39:15;18.20;62.30
7900;DHT22;3995;50.856;4.404;2022-10-16T08:42:06;18.20;62.30
7900;DHT22;3995;50.856;4.404;2022-10-16T08:47:45;18.20;62.10
7900;DHT22;3995;50.856;4.404;2022-10-16T08:50:22;18.20;62.20
7900;DHT22;3995;50.856;4.404;2022-10-16T08:52:50;18.20;62.10
7900;DHT22;3995;50.856;4.404;2022-10-16T08:55:30;18.20;62.00
7900;DHT22;3995;50.856;4.404;2022-10-16T08:57:58;18.30;61.90
7900;DHT22;3995;50.856;4.404;2022-10-16T09:00:26;18.30;62.00
7900;DHT22;3995;50.856;4.404;2022-10-16T09:03:03;18.30;62.00
7900;DHT22;3995;50.856;4.404;2022-10-16T09:05:54;18.30;61.80
7900;DHT22;3995;50.856;4.404;2022-10-16T09:08:30;18.30;61.80
7900;DHT22;3995;50.856;4.404;2022-10-16T09:11:05;18.30;61.80
7900;DHT22;3995;50.856;4.404;2022-10-16T09:13:47;18.30;61.70
7900;DHT22;3995;50.856;4.404;2022-10-16T09:16:19;18.40;61.70
7900;DHT22;3995;50.856;4.404;2022-10-16T09:18:54;18.40;61.70
7900;DHT22;3995;50.856;4.404;2022-10-16T09:21:27;18.40;61.50
7900;DHT22;3995;50.856;4.404;2022-10-16T09:23:57;18.50;61.70
7900;DHT22;3995;50.856;4.404;2022-10-16T09:26:25;18.50;61.60
7900;DHT22;3995;50.856;4.404;2022-10-16T09:28:53;18.50;61.50
7900;DHT22;3995;50.856;4.404;2022-10-16T09:31:22;18.50;61.40
7900;DHT22;3995;50.856;4.404;2022-10-16T09:33:52;18.60;61.20
7900;DHT22;3995;50.856;4.404;2022-10-16T09:36:21;18.60;61.00
7900;DHT22;3995;50.856;4.404;2022-10-16T09:39:02;18.60;61.00
7900;DHT22;3995;50.856;4.404;2022-10-16T09:41:30;18.70;61.00
7900;DHT22;3995;50.856;4.404;2022-10-16T09:43:59;18.70;61.00
7900;DHT22;3995;50.856;4.404;2022-10-16T09:46:28;18.80;60.90
7900;DHT22;3995;50.856;4.404;2022-10-16T09:48:57;18.80;60.80
7900;DHT22;3995;50.856;4.404;2022-10-16T09:51:27;18.80;60.60
7900;DHT22;3995;50.856;4.404;2022-10-16T09:53:58;18.90;60.40
7900;DHT22;3995;50.856;4.404;2022-10-16T09:56:27;19.00;60.50
7900;DHT22;3995;50.856;4.404;2022-10-16T09:58:56;19.00;60.30
7900;DHT22;3995;50.856;4.404;2022-10-16T10:01:28;19.10;60.10
7900;DHT22;3995;50.856;4.404;2022-10-16T10:03:57;19.20;60.00
7900;DHT22;3995;50.856;4.404;2022-10-16T10:06:30;19.20;59.80
7900;DHT22;3995;50.856;4.404;2022-10-16T10:09:03;19.30;59.90
7900;DHT22;3995;50.856;4.404;2022-10-16T10:11:45;19.40;59.80
7900;DHT22;3995;50.856;4.404;2022-10-16T10:14:29;19.50;59.50
7900;DHT22;3995;50.856;4.404;2022-10-16T10:17:16;19.50;59.20
7900;DHT22;3995;50.856;4.404;2022-10-16T10:19:49;19.60;59.30
7900;DHT22;3995;50.856;4.404;2022-10-16T10:22:28;19.70;59.30
7900;DHT22;3995;50.856;4.404;2022-10-16T10:25:07;19.80;59.00
7900;DHT22;3995;50.856;4.404;2022-10-16T10:27:53;19.90;58.50
7900;DHT22;3995;50.856;4.404;2022-10-16T10:30:26;19.90;58.20
7900;DHT22;3995;50.856;4.404;2022-10-16T10:33:11;19.90;58.20
7900;DHT22;3995;50.856;4.404;2022-10-16T10:35:45;19.90;57.70
7900;DHT22;3995;50.856;4.404;2022-10-16T10:38:27;19.90;57.80
7900;DHT22;3995;50.856;4.404;2022-10-16T10:41:05;19.90;57.90
7900;DHT22;3995;50.856;4.404;2022-10-16T10:43:50;19.90;58.00
7900;DHT22;3995;50.856;4.404;2022-10-16T10:46:28;19.90;57.90
7900;DHT22;3995;50.856;4.404;2022-10-16T10:49:25;19.80;57.90
7900;DHT22;3995;50.856;4.404;2022-10-16T10:52:05;19.90;57.80
7900;DHT22;3995;50.856;4.404;2022-10-16T10:54:40;19.80;58.00
7900;DHT22;3995;50.856;4.404;2022-10-16T10:57:29;19.80;58.00
7900;DHT22;3995;50.856;4.404;2022-10-16T11:00:11;19.80;58.00
7900;DHT22;3995;50.856;4.404;2022-10-16T11:02:48;19.80;58.20
7900;DHT22;3995;50.856;4.404;2022-10-16T11:05:31;19.80;58.30
7900;DHT22;3995;50.856;4.404;2022-10-16T11:08:08;19.80;57.60
7900;DHT22;3995;50.856;4.404;2022-10-16T11:10:44;19.80;57.90
7900;DHT22;3995;50.856;4.404;2022-10-16T11:13:21;19.80;57.40
7900;DHT22;3995;50.856;4.404;2022-10-16T11:15:52;19.80;57.30
7900;DHT22;3995;50.856;4.404;2022-10-16T11:18:22;19.70;57.10
7900;DHT22;3995;50.856;4.404;2022-10-16T11:20:53;19.70;57.20
7900;DHT22;3995;50.856;4.404;2022-10-16T11:23:25;19.70;57.50
7900;DHT22;3995;50.856;4.404;2022-10-16T11:25:55;19.70;57.50
7900;DHT22;3995;50.856;4.404;2022-10-16T11:28:28;19.70;57.50
7900;DHT22;3995;50.856;4.404;2022-10-16T11:30:59;19.80;57.30
7900;DHT22;3995;50.856;4.404;2022-10-16T11:33:32;19.80;57.40
7900;DHT22;3995;50.856;4.404;2022-10-16T11:36:07;19.80;57.30
7900;DHT22;3995;50.856;4.404;2022-10-16T11:38:41;19.80;57.50
7900;DHT22;3995;50.856;4.404;2022-10-16T11:41:18;19.80;57.50
7900;DHT22;3995;50.856;4.404;2022-10-16T11:43:56;19.80;56.80
7900;DHT22;3995;50.856;4.404;2022-10-16T11:46:27;19.80;56.60
7900;DHT22;3995;50.856;4.404;2022-10-16T11:49:02;19.70;56.60
7900;DHT22;3995;50.856;4.404;2022-10-16T11:51:35;19.80;56.40
7900;DHT22;3995;50.856;4.404;2022-10-16T11:54:10;19.80;56.50
7900;DHT22;3995;50.856;4.404;2022-10-16T11:56:41;19.80;56.40
7900;DHT22;3995;50.856;4.404;2022-10-16T11:59:17;19.80;56.50
7900;DHT22;3995;50.856;4.404;2022-10-16T12:01:50;19.80;56.50
7900;DHT22;3995;50.856;4.404;2022-10-16T12:04:23;19.80;56.60
7900;DHT22;3995;50.856;4.404;2022-10-16T12:06:59;19.80;56.30
7900;DHT22;3995;50.856;4.404;2022-10-16T12:09:31;19.80;56.20
7900;DHT22;3995;50.856;4.404;2022-10-16T12:11:59;19.80;56.00
7900;DHT22;3995;50.856;4.404;2022-10-16T12:14:37;19.80;55.90
7900;DHT22;3995;50.856;4.404;2022-10-16T12:17:24;19.90;56.00
7900;DHT22;3995;50.856;4.404;2022-10-16T12:19:59;20.00;56.10
7900;DHT22;3995;50.856;4.404;2022-10-16T12:22:28;19.90;55.90
7900;DHT22;3995;50.856;4.404;2022-10-16T12:24:56;19.90;56.00
7900;DHT22;3995;50.856;4.404;2022-10-16T12:27:28;20.00;56.00
7900;DHT22;3995;50.856;4.404;2022-10-16T12:29:58;20.00;56.20
7900;DHT22;3995;50.856;4.404;2022-10-16T12:32:30;20.00;56.30
7900;DHT22;3995;50.856;4.404;2022-10-16T12:34:59;20.00;56.20
7900;DHT22;3995;50.856;4.404;2022-10-16T12:37:28;20.00;56.20
7900;DHT22;3995;50.856;4.404;2022-10-16T12:39:58;20.10;55.90
7900;DHT22;3995;50.856;4.404;2022-10-16T12:42:34;20.10;55.60
7900;DHT22;3995;50.856;4.404;2022-10-16T12:45:22;20.10;55.40
7900;DHT22;3995;50.856;4.404;2022-10-16T12:47:52;20.10;55.40
7900;DHT22;3995;50.856;4.404;2022-10-16T12:50:29;20.10;55.40
7900;DHT22;3995;50.856;4.404;2022-10-16T12:52:57;20.10;55.20
7900;DHT22;3995;50.856;4.404;2022-10-16T12:55:26;20.10;55.30
7900;DHT22;3995;50.856;4.404;2022-10-16T12:58:24;20.10;55.60
7900;DHT22;3995;50.856;4.404;2022-10-16T13:00:57;20.10;55.60
7900;DHT22;3995;50.856;4.404;2022-10-16T13:06:22;20.10;56.10
7900;DHT22;3995;50.856;4.404;2022-10-16T13:09:17;20.10;56.10
7900;DHT22;3995;50.856;4.404;2022-10-16T13:12:05;20.10;56.20
7900;DHT22;3995;50.856;4.404;2022-10-16T13:17:30;20.10;56.10
7900;DHT22;3995;50.856;4.404;2022-10-16T13:20:12;20.10;56.30
7900;DHT22;3995;50.856;4.404;2022-10-16T13:22:50;20.20;56.40
7900;DHT22;3995;50.856;4.404;2022-10-16T13:25:24;20.20;56.40
7900;DHT22;3995;50.856;4.404;2022-10-16T13:27:55;20.20;56.50
7900;DHT22;3995;50.856;4.404;2022-10-16T13:30:25;20.20;56.70
7900;DHT22;3995;50.856;4.404;2022-10-16T13:33:01;20.20;56.60
7900;DHT22;3995;50.856;4.404;2022-10-16T13:35:31;20.20;56.60
7900;DHT22;3995;50.856;4.404;2022-10-16T13:38:14;20.20;56.80
7900;DHT22;3995;50.856;4.404;2022-10-16T13:40:53;20.30;56.90
7900;DHT22;3995;50.856;4.404;2022-10-16T13:43:23;20.20;57.00
7900;DHT22;3995;50.856;4.404;2022-10-16T13:45:55;20.20;56.90
7900;DHT22;3995;50.856;4.404;2022-10-16T13:48:24;20.20;56.90
7900;DHT22;3995;50.856;4.404;2022-10-16T13:51:00;20.20;56.90
7900;DHT22;3995;50.856;4.404;2022-10-16T13:53:30;20.30;56.90
7900;DHT22;3995;50.856;4.404;2022-10-16T13:55:58;20.20;57.20
7900;DHT22;3995;50.856;4.404;2022-10-16T13:58:26;20.20;56.40
7900;DHT22;3995;50.856;4.404;2022-10-16T14:00:57;20.20;56.00
7900;DHT22;3995;50.856;4.404;2022-10-16T14:03:27;20.30;55.90
7900;DHT22;3995;50.856;4.404;2022-10-16T14:05:57;20.20;56.00
7900;DHT22;3995;50.856;4.404;2022-10-16T14:08:27;20.20;55.90
7900;DHT22;3995;50.856;4.404;2022-10-16T14:10:57;20.30;55.90
7900;DHT22;3995;50.856;4.404;2022-10-16T14:13:30;20.20;56.10
7900;DHT22;3995;50.856;4.404;2022-10-16T14:16:02;20.30;56.00
7900;DHT22;3995;50.856;4.404;2022-10-16T14:18:33;20.20;56.10
7900;DHT22;3995;50.856;4.404;2022-10-16T14:21:06;20.20;56.20
7900;DHT22;3995;50.856;4.404;2022-10-16T14:23:36;20.30;56.20
7900;DHT22;3995;50.856;4.404;2022-10-16T14:26:13;20.20;56.30
7900;DHT22;3995;50.856;4.404;2022-10-16T14:28:41;20.30;56.50
7900;DHT22;3995;50.856;4.404;2022-10-16T14:31:36;20.20;56.90
7900;DHT22;3995;50.856;4.404;2022-10-16T14:34:24;20.30;56.30
7900;DHT22;3995;50.856;4.404;2022-10-16T14:36:53;20.20;56.40
7900;DHT22;3995;50.856;4.404;2022-10-16T14:39:21;20.20;56.50
7900;DHT22;3995;50.856;4.404;2022-10-16T14:41:50;20.20;56.70
7900;DHT22;3995;50.856;4.404;2022-10-16T14:44:19;20.20;56.80
7900;DHT22;3995;50.856;4.404;2022-10-16T14:46:49;20.20;56.70
7900;DHT22;3995;50.856;4.404;2022-10-16T14:49:19;20.20;56.80
7900;DHT22;3995;50.856;4.404;2022-10-16T14:51:48;20.20;56.90
7900;DHT22;3995;50.856;4.404;2022-10-16T14:54:16;20.20;56.60
7900;DHT22;3995;50.856;4.404;2022-10-16T14:56:47;20.20;56.80
7900;DHT22;3995;50.856;4.404;2022-10-16T14:59:18;20.30;57.00
7900;DHT22;3995;50.856;4.404;2022-10-16T15:01:46;20.30;57.70
7900;DHT22;3995;50.856;4.404;2022-10-16T15:04:13;20.20;57.00
7900;DHT22;3995;50.856;4.404;2022-10-16T15:06:41;20.20;57.10
7900;DHT22;3995;50.856;4.404;2022-10-16T15:09:09;20.20;57.20
7900;DHT22;3995;50.856;4.404;2022-10-16T15:11:36;20.30;57.30
7900;DHT22;3995;50.856;4.404;2022-10-16T15:14:04;20.20;57.30
7900;DHT22;3995;50.856;4.404;2022-10-16T15:16:31;20.30;57.30
7900;DHT22;3995;50.856;4.404;2022-10-16T15:18:59;20.20;57.20
7900;DHT22;3995;50.856;4.404;2022-10-16T15:21:28;20.20;57.20
7900;DHT22;3995;50.856;4.404;2022-10-16T15:23:56;20.20;57.20
7900;DHT22;3995;50.856;4.404;2022-10-16T15:26:26;20.20;57.30
7900;DHT22;3995;50.856;4.404;2022-10-16T15:28:53;20.20;57.40
7900;DHT22;3995;50.856;4.404;2022-10-16T15:31:21;20.20;57.50
7900;DHT22;3995;50.856;4.404;2022-10-16T15:33:50;20.20;57.50
7900;DHT22;3995;50.856;4.404;2022-10-16T15:36:25;20.20;57.60
7900;DHT22;3995;50.856;4.404;2022-10-16T15:38:52;20.20;57.70
7900;DHT22;3995;50.856;4.404;2022-10-16T15:41:19;20.20;57.70
7900;DHT22;3995;50.856;4.404;2022-10-16T15:43:49;20.20;57.80
7900;DHT22;3995;50.856;4.404;2022-10-16T15:46:19;20.20;57.80
7900;DHT22;3995;50.856;4.404;2022-10-16T15:48:46;20.20;57.80
7900;DHT22;3995;50.856;4.404;2022-10-16T15:51:13;20.20;57.90
7900;DHT22;3995;50.856;4.404;2022-10-16T15:53:40;20.20;58.00
7900;DHT22;3995;50.856;4.404;2022-10-16T15:56:09;20.20;58.10
7900;DHT22;3995;50.856;4.404;2022-10-16T15:58:37;20.20;58.00
7900;DHT22;3995;50.856;4.404;2022-10-16T16:01:06;20.20;57.80
7900;DHT22;3995;50.856;4.404;2022-10-16T16:03:35;20.20;58.20
7900;DHT22;3995;50.856;4.404;2022-10-16T16:06:07;20.20;58.20
7900;DHT22;3995;50.856;4.404;2022-10-16T16:08:34;20.20;58.10
7900;DHT22;3995;50.856;4.404;2022-10-16T16:11:03;20.10;58.00
7900;DHT22;3995;50.856;4.404;2022-10-16T16:13:31;20.10;57.90
7900;DHT22;3995;50.856;4.404;2022-10-16T16:15:58;20.10;57.90
7900;DHT22;3995;50.856;4.404;2022-10-16T16:18:27;20.10;58.10
7900;DHT22;3995;50.856;4.404;2022-10-16T16:20:55;20.10;58.20
7900;DHT22;3995;50.856;4.404;2022-10-16T16:23:22;20.10;58.20
7900;DHT22;3995;50.856;4.404;2022-10-16T16:26:04;20.10;58.30
7900;DHT22;3995;50.856;4.404;2022-10-16T16:28:32;20.20;58.40
7900;DHT22;3995;50.856;4.404;2022-10-16T16:30:59;20.10;58.50
7900;DHT22;3995;50.856;4.404;2022-10-16T16:33:28;20.10;59.10